sensor_id;sensor_type;location;lat;lon;timestamp;temperature;humidity
1091;DHT22;534;48.704;9.122;2023-09-18T04:01:48;20.70;81.10
1091;DHT22;534;48.704;9.122;2023-09-18T04:04:16;20.80;81.00
1091;DHT22;534;48.704;9.122;2023-09-18T04:06:44;20.90;81.10
1091;DHT22;534;48.704;9.122;2023-09-18T04:09:11;21.10;81.20
1091;DHT22;534;48.704;9.122;2023-09-18T04:11:40;21.10;80.30
1091;DHT22;534;48.704;9.122;2023-09-18T04:14:07;21.30;80.00
1091;DHT22;534;48.704;9.122;2023-09-18T04:16:34;21.20;80.10
1091;DHT22;534;48.704;9.122;2023-09-18T04:19:04;21.20;80.60
1091;DHT22;534;48.704;9.122;2023-09-18T04:21:30;21.30;80.20
1091;DHT22;534;48.704;9.122;2023-09-18T04:23:57;21.20;80.20
1091;DHT22;534;48.704;9.122;2023-09-18T04:26:24;21.20;79.80
1091;DHT22;534;48.704;9.122;2023-09-18T04:28:54;21.30;79.60
1091;DHT22;534;48.704;9.122;2023-09-18T04:31:21;21.50;79.50
1091;DHT22;534;48.704;9.122;2023-09-18T04:33:48;21.50;79.20
1091;DHT22;534;48.704;9.122;2023-09-18T04:36:16;21.60;79.30
1091;DHT22;534;48.704;9.122;2023-09-18T04:38:43;21.70;78.90
1091;DHT22;534;48.704;9.122;2023-09-18T04:41:09;21.80;78.90
1091;DHT22;534;48.704;9.122;2023-09-18T04:43:37;22.00;78.50
1091;DHT22;534;48.704;9.122;2023-09-18T04:46:04;21.80;79.20
1091;DHT22;534;48.704;9.122;2023-09-18T04:48:31;21.80;78.90
1091;DHT22;534;48.704;9.122;2023-09-18T04:50:59;21.80;78.60
1091;DHT22;534;48.704;9.122;2023-09-18T04:53:28;21.60;78.60
1091;DHT22;534;48.704;9.122;2023-09-18T04:55:54;21.60;79.00
1091;DHT22;534;48.704;9.122;2023-09-18T04:58:21;21.70;79.20
1091;DHT22;534;48.704;9.122;2023-09-18T05:00:53;21.80;78.90
1091;DHT22;534;48.704;9.122;2023-09-18T05:03:20;21.90;78.70
1091;DHT22;534;48.704;9.122;2023-09-18T05:05:47;21.50;79.40
1091;DHT22;534;48.704;9.122;2023-09-18T05:08:14;21.40;80.20
1091;DHT22;534;48.704;9.122;2023-09-18T05:10:42;21.50;80.50
1091;DHT22;534;48.704;9.122;2023-09-18T05:13:09;21.60;80.40
1091;DHT22;534;48.704;9.122;2023-09-18T05:15:36;21.60;79.90
1091;DHT22;534;48.704;9.122;2023-09-18T05:18:03;21.60;80.00
1091;DHT22;534;48.704;9.122;2023-09-18T05:20:31;21.50;79.80
1091;DHT22;534;48.704;9.122;2023-09-18T05:22:58;21.40;80.40
1091;DHT22;534;48.704;9.122;2023-09-18T05:25:28;21.40;80.50
1091;DHT22;534;48.704;9.122;2023-09-18T05:28:00;21.40;80.50
1091;DHT22;534;48.704;9.122;2023-09-18T05:30:28;21.50;80.40
1091;DHT22;534;48.704;9.122;2023-09-18T05:32:56;21.60;79.90
1091;DHT22;534;48.704;9.122;2023-09-18T05:35:29;21.30;80.20
1091;DHT22;534;48.704;9.122;2023-09-18T05:37:56;21.20;80.90
1091;DHT22;534;48.704;9.122;2023-09-18T05:40:24;21.30;80.70
1091;DHT22;534;48.704;9.122;2023-09-18T05:42:52;21.30;81.00
1091;DHT22;534;48.704;9.122;2023-09-18T05:45:21;21.20;80.90
1091;DHT22;534;48.704;9.122;2023-09-18T05:47:47;21.30;81.20
1091;DHT22;534;48.704;9.122;2023-09-18T05:50:15;21.30;80.50
1091;DHT22;534;48.704;9.122;2023-09-18T05:52:42;21.40;80.90
1091;DHT22;534;48.704;9.122;2023-09-18T05:55:10;21.40;80.60
1091;DHT22;534;48.704;9.122;2023-09-18T05:57:37;21.30;80.60
1091;DHT22;534;48.704;9.122;2023-09-18T06:00:05;21.40;80.80
1091;DHT22;534;48.704;9.122;2023-09-18T06:02:33;21.20;80.50
1091;DHT22;534;48.704;9.122;2023-09-18T06:05:00;21.10;81.10
1091;DHT22;534;48.704;9.122;2023-09-18T06:07:28;21.00;81.00
1091;DHT22;534;48.704;9.122;2023-09-18T06:09:56;20.90;81.70
1091;DHT22;534;48.704;9.122;2023-09-18T06:12:22;20.80;81.80
1091;DHT22;534;48.704;9.122;2023-09-18T06:14:50;20.70;81.90
1091;DHT22;534;48.704;9.122;2023-09-18T06:17:17;20.70;82.20
1091;DHT22;534;48.704;9.122;2023-09-18T06:19:45;20.80;82.50
1091;DHT22;534;48.704;9.122;2023-09-18T06:22:12;20.60;83.30
1091;DHT22;534;48.704;9.122;2023-09-18T06:24:39;20.70;83.20
1091;DHT22;534;48.704;9.122;2023-09-18T06:27:06;20.60;83.40
1091;DHT22;534;48.704;9.122;2023-09-18T06:29:32;20.50;83.40
1091;DHT22;534;48.704;9.122;2023-09-18T06:32:00;20.60;83.80
1091;DHT22;534;48.704;9.122;2023-09-18T06:34:26;20.60;83.60
1091;DHT22;534;48.704;9.122;2023-09-18T06:36:55;20.70;83.70
1091;DHT22;534;48.704;9.122;2023-09-18T06:39:21;20.90;82.80
1091;DHT22;534;48.704;9.122;2023-09-18T06:41:49;20.70;83.40
1091;DHT22;534;48.704;9.122;2023-09-18T06:44:16;20.60;83.70
1091;DHT22;534;48.704;9.122;2023-09-18T06:46:42;20.60;84.50
1091;DHT22;534;48.704;9.122;2023-09-18T06:49:09;20.50;85.10
1091;DHT22;534;48.704;9.122;2023-09-18T06:51:36;20.50;84.90
1091;DHT22;534;48.704;9.122;2023-09-18T06:54:04;20.40;85.30
1091;DHT22;534;48.704;9.122;2023-09-18T06:56:31;20.50;85.50
1091;DHT22;534;48.704;9.122;2023-09-18T06:58:57;20.40;85.60
1091;DHT22;534;48.704;9.122;2023-09-18T07:01:24;20.50;85.10
1091;DHT22;534;48.704;9.122;2023-09-18T07:03:52;20.60;85.20
1091;DHT22;534;48.704;9.122;2023-09-18T07:06:19;20.70;85.00
1091;DHT22;534;48.704;9.122;2023-09-18T07:08:46;20.70;85.20
1091;DHT22;534;48.704;9.122;2023-09-18T07:11:16;20.90;84.30
1091;DHT22;534;48.704;9.122;2023-09-18T07:13:43;21.00;84.00
1091;DHT22;534;48.704;9.122;2023-09-18T07:16:10;21.10;84.00
1091;DHT22;534;48.704;9.122;2023-09-18T07:18:37;21.10;83.50
1091;DHT22;534;48.704;9.122;2023-09-18T07:21:03;21.20;82.90
1091;DHT22;534;48.704;9.122;2023-09-18T07:23:30;21.20;81.10
1091;DHT22;534;48.704;9.122;2023-09-18T07:25:57;21.10;81.70
1091;DHT22;534;48.704;9.122;2023-09-18T07:28:25;21.20;81.70
1091;DHT22;534;48.704;9.122;2023-09-18T07:30:52;21.10;80.50
1091;DHT22;534;48.704;9.122;2023-09-18T07:33:18;21.20;80.40
1091;DHT22;534;48.704;9.122;2023-09-18T07:35:46;21.10;80.50
1091;DHT22;534;48.704;9.122;2023-09-18T07:38:13;21.10;79.80
1091;DHT22;534;48.704;9.122;2023-09-18T07:40:40;21.10;80.70
1091;DHT22;534;48.704;9.122;2023-09-18T07:43:07;21.10;81.50
1091;DHT22;534;48.704;9.122;2023-09-18T07:45:37;21.20;82.10
1091;DHT22;534;48.704;9.122;2023-09-18T07:48:04;21.10;81.10
1091;DHT22;534;48.704;9.122;2023-09-18T07:50:31;21.20;81.50
1091;DHT22;534;48.704;9.122;2023-09-18T07:52:58;21.20;80.40
1091;DHT22;534;48.704;9.122;2023-09-18T07:55:25;21.30;80.20
1091;DHT22;534;48.704;9.122;2023-09-18T07:57:52;21.40;79.90
1091;DHT22;534;48.704;9.122;2023-09-18T08:00:19;21.50;80.00
1091;DHT22;534;48.704;9.122;2023-09-18T08:02:49;21.60;78.90
1091;DHT22;534;48.704;9.122;2023-09-18T08:05:20;21.70;79.60
1091;DHT22;534;48.704;9.122;2023-09-18T08:07:46;21.80;79.50
1091;DHT22;534;48.704;9.122;2023-09-18T08:10:14;21.60;78.70
1091;DHT22;534;48.704;9.122;2023-09-18T08:12:41;21.60;78.90
1091;DHT22;534;48.704;9.122;2023-09-18T08:15:08;21.60;78.30
1091;DHT22;534;48.704;9.122;2023-09-18T08:17:36;21.40;78.70
1091;DHT22;534;48.704;9.122;2023-09-18T08:20:06;21.40;79.90
1091;DHT22;534;48.704;9.122;2023-09-18T08:22:38;21.30;79.30
1091;DHT22;534;48.704;9.122;2023-09-18T08:25:06;21.00;80.40
1091;DHT22;534;48.704;9.122;2023-09-18T08:27:33;20.80;80.90
1091;DHT22;534;48.704;9.122;2023-09-18T08:30:00;20.70;81.60
1091;DHT22;534;48.704;9.122;2023-09-18T08:32:27;20.60;81.80
1091;DHT22;534;48.704;9.122;2023-09-18T08:34:55;20.60;81.90
1091;DHT22;534;48.704;9.122;2023-09-18T08:37:25;20.60;82.70
1091;DHT22;534;48.704;9.122;2023-09-18T08:39:52;20.50;82.70
1091;DHT22;534;48.704;9.122;2023-09-18T08:42:20;20.50;82.60
1091;DHT22;534;48.704;9.122;2023-09-18T08:44:49;20.50;82.80
1091;DHT22;534;48.704;9.122;2023-09-18T08:47:18;20.50;82.80
1091;DHT22;534;48.704;9.122;2023-09-18T08:49:45;20.30;83.10
1091;DHT22;534;48.704;9.122;2023-09-18T08:52:12;20.10;84.60
1091;DHT22;534;48.704;9.122;2023-09-18T08:54:42;20.10;85.20
1091;DHT22;534;48.704;9.122;2023-09-18T08:57:09;20.10;85.20
1091;DHT22;534;48.704;9.122;2023-09-18T08:59:39;20.10;85.00
1091;DHT22;534;48.704;9.122;2023-09-18T09:02:06;20.10;84.70
1091;DHT22;534;48.704;9.122;2023-09-18T09:04:37;19.90;85.20
1091;DHT22;534;48.704;9.122;2023-09-18T09:07:04;19.90;85.80
1091;DHT22;534;48.704;9.122;2023-09-18T09:09:32;20.10;86.30
1091;DHT22;534;48.704;9.122;2023-09-18T09:12:00;20.00;85.80
1091;DHT22;534;48.704;9.122;2023-09-18T09:14:26;19.90;85.90
1091;DHT22;534;48.704;9.122;2023-09-18T09:16:55;19.90;86.80
1091;DHT22;534;48.704;9.122;2023-09-18T09:19:32;19.90;86.60
1091;DHT22;534;48.704;9.122;2023-09-18T09:22:02;19.80;87.60
1091;DHT22;534;48.704;9.122;2023-09-18T09:24:39;19.70;88.40
1091;DHT22;534;48.704;9.122;2023-09-18T09:27:08;19.80;87.90
1091;DHT22;534;48.704;9.122;2023-09-18T09:29:35;19.90;88.10
1091;DHT22;534;48.704;9.122;2023-09-18T09:32:15;19.70;87.90
1091;DHT22;534;48.704;9.122;2023-09-18T09:34:42;19.80;88.10
1091;DHT22;534;48.704;9.122;2023-09-18T09:37:10;20.00;87.50
1091;DHT22;534;48.704;9.122;2023-09-18T09:39:47;20.00;87.50
1091;DHT22;534;48.704;9.122;2023-09-18T09:42:18;20.10;87.70
1091;DHT22;534;48.704;9.122;2023-09-18T09:45:00;20.30;86.80
1091;DHT22;534;48.704;9.122;2023-09-18T09:47:27;20.40;87.20
1091;DHT22;534;48.704;9.122;2023-09-18T09:49:55;20.40;86.80
1091;DHT22;534;48.704;9.122;2023-09-18T09:52:22;20.30;86.90
1091;DHT22;534;48.704;9.122;2023-09-18T09:54:49;20.30;87.00
1091;DHT22;534;48.704;9.122;2023-09-18T09:57:17;20.30;87.40
1091;DHT22;534;48.704;9.122;2023-09-18T09:59:44;20.30;87.50
1091;DHT22;534;48.704;9.122;2023-09-18T10:02:10;20.10;88.30
1091;DHT22;534;48.704;9.122;2023-09-18T10:04:45;20.20;89.30
1091;DHT22;534;48.704;9.122;2023-09-18T10:07:14;20.10;89.10
1091;DHT22;534;48.704;9.122;2023-09-18T10:09:42;20.20;88.10
1091;DHT22;534;48.704;9.122;2023-09-18T10:12:11;20.20;88.10
1091;DHT22;534;48.704;9.122;2023-09-18T10:14:40;20.10;87.60
1091;DHT22;534;48.704;9.122;2023-09-18T10:17:12;19.90;87.80
1091;DHT22;534;48.704;9.122;2023-09-18T10:19:45;19.80;88.40
1091;DHT22;534;48.704;9.122;2023-09-18T10:22:24;19.60;89.20
1091;DHT22;534;48.704;9.122;2023-09-18T10:24:56;19.60;89.80
1091;DHT22;534;48.704;9.122;2023-09-18T10:27:26;19.70;89.90
1091;DHT22;534;48.704;9.122;2023-09-18T10:29:55;19.70;88.80
1091;DHT22;534;48.704;9.122;2023-09-18T10:32:22;19.60;89.00
1091;DHT22;534;48.704;9.122;2023-09-18T10:34:51;19.50;88.80
1091;DHT22;534;48.704;9.122;2023-09-18T10:37:18;19.40;89.30
1091;DHT22;534;48.704;9.122;2023-09-18T10:39:45;19.40;89.90
1091;DHT22;534;48.704;9.122;2023-09-18T10:42:17;19.50;90.30
1091;DHT22;534;48.704;9.122;2023-09-18T10:44:45;19.40;89.30
1091;DHT22;534;48.704;9.122;2023-09-18T10:47:13;19.40;90.10
1091;DHT22;534;48.704;9.122;2023-09-18T10:49:41;19.40;89.90
1091;DHT22;534;48.704;9.122;2023-09-18T10:52:11;19.60;89.70
1091;DHT22;534;48.704;9.122;2023-09-18T10:54:38;19.60;89.80
1091;DHT22;534;48.704;9.122;2023-09-18T10:57:05;19.80;89.40
1091;DHT22;534;48.704;9.122;2023-09-18T10:59:32;19.80;88.50
1091;DHT22;534;48.704;9.122;2023-09-18T11:02:02;19.80;88.80
1091;DHT22;534;48.704;9.122;2023-09-18T11:04:32;19.80;88.00
1091;DHT22;534;48.704;9.122;2023-09-18T11:07:02;19.80;88.00
1091;DHT22;534;48.704;9.122;2023-09-18T11:09:32;19.80;88.40
1091;DHT22;534;48.704;9.122;2023-09-18T11:12:06;19.70;87.90
1091;DHT22;534;48.704;9.122;2023-09-18T11:14:56;19.70;88.10
1091;DHT22;534;48.704;9.122;2023-09-18T11:17:33;19.60;88.50
1091;DHT22;534;48.704;9.122;2023-09-18T11:20:06;19.50;89.20
1091;DHT22;534;48.704;9.122;2023-09-18T11:22:39;19.70;89.20
1091;DHT22;534;48.704;9.122;2023-09-18T11:25:28;19.60;88.80
1091;DHT22;534;48.704;9.122;2023-09-18T11:27:56;19.60;88.40
1091;DHT22;534;48.704;9.122;2023-09-18T11:30:23;19.50;88.40
1091;DHT22;534;48.704;9.122;2023-09-18T11:32:50;19.50;88.60
1091;DHT22;534;48.704;9.122;2023-09-18T11:35:19;19.60;88.80
1091;DHT22;534;48.704;9.122;2023-09-18T11:37:46;19.70;88.20
1091;DHT22;534;48.704;9.122;2023-09-18T11:40:29;19.80;87.90
1091;DHT22;534;48.704;9.122;2023-09-18T11:43:29;19.90;88.10
1091;DHT22;534;48.704;9.122;2023-09-18T11:45:57;19.90;87.60
1091;DHT22;534;48.704;9.122;2023-09-18T11:48:26;19.90;87.30
1091;DHT22;534;48.704;9.122;2023-09-18T11:50:57;20.00;87.50
1091;DHT22;534;48.704;9.122;2023-09-18T11:53:24;20.00;87.00
1091;DHT22;534;48.704;9.122;2023-09-18T11:55:53;20.10;87.00
1091;DHT22;534;48.704;9.122;2023-09-18T11:58:19;20.20;86.60
1091;DHT22;534;48.704;9.122;2023-09-18T12:00:49;20.10;86.70
1091;DHT22;534;48.704;9.122;2023-09-18T12:03:17;20.10;86.70
1091;DHT22;534;48.704;9.122;2023-09-18T12:05:52;20.10;86.80
1091;DHT22;534;48.704;9.122;2023-09-18T12:08:22;20.10;86.30
1091;DHT22;534;48.704;9.122;2023-09-18T12:10:49;20.20;86.50
1091;DHT22;534;48.704;9.122;2023-09-18T12:13:16;20.20;86.90
1091;DHT22;534;48.704;9.122;2023-09-18T12:15:43;20.20;86.90
1091;DHT22;534;48.704;9.122;2023-09-18T12:18:10;20.20;86.60
1091;DHT22;534;48.704;9.122;2023-09-18T12:20:44;20.20;86.20
1091;DHT22;534;48.704;9.122;2023-09-18T12:23:11;20.00;87.10
1091;DHT22;534;48.704;9.122;2023-09-18T12:25:39;20.20;87.10
1091;DHT22;534;48.704;9.122;2023-09-18T12:28:07;20.20;86.90
1091;DHT22;534;48.704;9.122;2023-09-18T12:30:34;20.30;86.70
1091;DHT22;534;48.704;9.122;2023-09-18T12:33:01;20.40;86.00
1091;DHT22;534;48.704;9.122;2023-09-18T12:35:29;20.40;86.50
1091;DHT22;534;48.704;9.122;2023-09-18T12:37:57;20.50;85.60
1091;DHT22;534;48.704;9.122;2023-09-18T12:40:24;20.70;84.90
1091;DHT22;534;48.704;9.122;2023-09-18T12:42:54;20.80;84.90
1091;DHT22;534;48.704;9.122;2023-09-18T12:45:21;21.10;84.70
1091;DHT22;534;48.704;9.122;2023-09-18T12:47:48;21.20;83.70
1091;DHT22;534;48.704;9.122;2023-09-18T12:50:15;21.40;83.20
1091;DHT22;534;48.704;9.122;2023-09-18T12:52:42;21.70;82.50
1091;DHT22;534;48.704;9.122;2023-09-18T12:55:20;21.70;81.80
1091;DHT22;534;48.704;9.122;2023-09-18T12:57:49;21.60;80.70
1091;DHT22;534;48.704;9.122;2023-09-18T13:00:19;21.60;80.90
1091;DHT22;534;48.704;9.122;2023-09-18T13:02:48;21.80;80.20
1091;DHT22;534;48.704;9.122;2023-09-18T13:05:19;21.60;79.10
1091;DHT22;534;48.704;9.122;2023-09-18T13:07:46;21.70;79.40
1091;DHT22;534;48.704;9.122;2023-09-18T13:10:13;21.60;79.60
1091;DHT22;534;48.704;9.122;2023-09-18T13:12:42;21.80;80.30
1091;DHT22;534;48.704;9.122;2023-09-18T13:15:10;22.00;79.60
1091;DHT22;534;48.704;9.122;2023-09-18T13:17:43;21.80;77.80
1091;DHT22;534;48.704;9.122;2023-09-18T13:20:12;21.60;78.20
1091;DHT22;534;48.704;9.122;2023-09-18T13:22:40;21.60;78.70
1091;DHT22;534;48.704;9.122;2023-09-18T13:25:08;21.60;79.50
1091;DHT22;534;48.704;9.122;2023-09-18T13:27:36;21.70;79.70
1091;DHT22;534;48.704;9.122;2023-09-18T13:30:04;21.80;78.70
1091;DHT22;534;48.704;9.122;2023-09-18T13:32:34;22.00;78.20
1091;DHT22;534;48.704;9.122;2023-09-18T13:35:03;22.30;77.20
1091;DHT22;534;48.704;9.122;2023-09-18T13:37:31;22.80;75.60
1091;DHT22;534;48.704;9.122;2023-09-18T13:39:58;23.10;74.90
1091;DHT22;534;48.704;9.122;2023-09-18T13:42:28;23.10;74.40
1091;DHT22;534;48.704;9.122;2023-09-18T13:44:56;22.80;74.70
1091;DHT22;534;48.704;9.122;2023-09-18T13:47:23;22.50;74.30
1091;DHT22;534;48.704;9.122;2023-09-18T13:49:49;22.10;76.50
1091;DHT22;534;48.704;9.122;2023-09-18T13:52:18;22.00;76.70
1091;DHT22;534;48.704;9.122;2023-09-18T13:54:45;21.90;76.90
1091;DHT22;534;48.704;9.122;2023-09-18T13:57:16;21.90;76.70
1091;DHT22;534;48.704;9.122;2023-09-18T13:59:44;22.00;77.00
1091;DHT22;534;48.704;9.122;2023-09-18T14:02:11;22.10;77.20
1091;DHT22;534;48.704;9.122;2023-09-18T14:04:38;22.40;76.90
1091;DHT22;534;48.704;9.122;2023-09-18T14:07:05;22.50;75.60
1091;DHT22;534;48.704;9.122;2023-09-18T14:09:33;22.40;75.50
1091;DHT22;534;48.704;9.122;2023-09-18T14:12:00;22.50;75.00
1091;DHT22;534;48.704;9.122;2023-09-18T14:14:28;22.50;74.50
1091;DHT22;534;48.704;9.122;2023-09-18T14:16:55;22.50;75.60
1091;DHT22;534;48.704;9.122;2023-09-18T14:19:22;23.10;74.40
1091;DHT22;534;48.704;9.122;2023-09-18T14:21:49;23.60;72.80
1091;DHT22;534;48.704;9.122;2023-09-18T14:24:17;23.60;72.30
1091;DHT22;534;48.704;9.122;2023-09-18T14:26:48;23.80;72.80
1091;DHT22;534;48.704;9.122;2023-09-18T14:29:15;23.70;72.40
1091;DHT22;534;48.704;9.122;2023-09-18T14:31:42;23.40;71.10
1091;DHT22;534;48.704;9.122;2023-09-18T14:34:09;23.10;72.60
1091;DHT22;534;48.704;9.122;2023-09-18T14:36:36;23.30;72.40
1091;DHT22;534;48.704;9.122;2023-09-18T14:39:04;23.40;71.80
1091;DHT22;534;48.704;9.122;2023-09-18T14:41:33;23.60;70.70
1091;DHT22;534;48.704;9.122;2023-09-18T14:44:01;23.70;70.30
1091;DHT22;534;48.704;9.122;2023-09-18T14:46:29;23.90;69.80
1091;DHT22;534;48.704;9.122;2023-09-18T14:48:56;24.20;68.20
1091;DHT22;534;48.704;9.122;2023-09-18T14:51:23;24.80;67.60
1091;DHT22;534;48.704;9.122;2023-09-18T14:53:50;26.00;65.80
1091;DHT22;534;48.704;9.122;2023-09-18T14:56:16;26.80;64.30
1091;DHT22;534;48.704;9.122;2023-09-18T14:58:43;27.40;63.00
1091;DHT22;534;48.704;9.122;2023-09-18T15:01:11;27.60;62.00
1091;DHT22;534;48.704;9.122;2023-09-18T15:03:39;27.50;61.10
1091;DHT22;534;48.704;9.122;2023-09-18T15:06:06;27.10;62.30
1091;DHT22;534;48.704;9.122;2023-09-18T15:08:33;26.30;63.10
1091;DHT22;534;48.704;9.122;2023-09-18T15:10:59;25.90;64.60
1091;DHT22;534;48.704;9.122;2023-09-18T15:13:26;25.40;65.90
1091;DHT22;534;48.704;9.122;2023-09-18T15:15:53;24.40;67.30
1091;DHT22;534;48.704;9.122;2023-09-18T15:18:21;24.00;68.30
1091;DHT22;534;48.704;9.122;2023-09-18T15:20:48;23.80;69.60
1091;DHT22;534;48.704;9.122;2023-09-18T15:23:19;23.40;70.00
1091;DHT22;534;48.704;9.122;2023-09-18T15:25:47;23.00;70.30
1091;DHT22;534;48.704;9.122;2023-09-18T15:28:15;22.90;71.00
1091;DHT22;534;48.704;9.122;2023-09-18T15:30:43;22.80;71.30
1091;DHT22;534;48.704;9.122;2023-09-18T15:33:10;22.90;71.60
1091;DHT22;534;48.704;9.122;2023-09-18T15:35:38;22.90;71.70
1091;DHT22;534;48.704;9.122;2023-09-18T15:38:05;23.00;71.70
1091;DHT22;534;48.704;9.122;2023-09-18T15:40:33;22.90;71.50
1091;DHT22;534;48.704;9.122;2023-09-18T15:43:00;22.80;72.20
1091;DHT22;534;48.704;9.122;2023-09-18T15:45:27;22.60;72.50
1091;DHT22;534;48.704;9.122;2023-09-18T15:47:53;22.50;72.80
1091;DHT22;534;48.704;9.122;2023-09-18T15:50:21;22.50;72.50
1091;DHT22;534;48.704;9.122;2023-09-18T15:52:49;22.40;72.60
1091;DHT22;534;48.704;9.122;2023-09-18T15:55:16;22.40;73.20
1091;DHT22;534;48.704;9.122;2023-09-18T15:57:43;22.30;73.00
1091;DHT22;534;48.704;9.122;2023-09-18T16:00:11;22.10;74.00
1091;DHT22;534;48.704;9.122;2023-09-18T16:02:38;22.20;74.00
1091;DHT22;534;48.704;9.122;2023-09-18T16:05:05;22.10;73.40
1091;DHT22;534;48.704;9.122;2023-09-18T16:07:33;22.10;73.30
1091;DHT22;534;48.704;9.122;2023-09-18T16:10:02;22.00;73.50
1091;DHT22;534;48.704;9.122;2023-09-18T16:12:30;22.10;74.40
1091;DHT22;534;48.704;9.122;2023-09-18T16:14:58;22.20;73.60
1091;DHT22;534;48.704;9.122;2023-09-18T16:17:25;22.20;73.30
1091;DHT22;534;48.704;9.122;2023-09-18T16:19:52;22.20;73.20
1091;DHT22;534;48.704;9.122;2023-09-18T16:22:19;22.00;74.00
1091;DHT22;534;48.704;9.122;2023-09-18T16:24:46;22.00;74.00
1091;DHT22;534;48.704;9.122;2023-09-18T16:27:14;21.80;74.20
1091;DHT22;534;48.704;9.122;2023-09-18T16:29:41;21.90;74.50
1091;DHT22;534;48.704;9.122;2023-09-18T16:32:08;21.90;74.10
1091;DHT22;534;48.704;9.122;2023-09-18T16:34:35;21.90;74.50
1091;DHT22;534;48.704;9.122;2023-09-18T16:37:02;21.90;74.90
1091;DHT22;534;48.704;9.122;2023-09-18T16:39:29;21.90;75.00
1091;DHT22;534;48.704;9.122;2023-09-18T16:41:56;21.90;74.90
1091;DHT22;534;48.704;9.122;2023-09-18T16:44:24;21.80;74.80
1091;DHT22;534;48.704;9.122;2023-09-18T16:46:51;21.60;75.30
1091;DHT22;534;48.704;9.122;2023-09-18T16:49:18;21.50;75.10
1091;DHT22;534;48.704;9.122;2023-09-18T16:51:48;21.40;75.80
1091;DHT22;534;48.704;9.122;2023-09-18T16:54:15;21.40;75.80
1091;DHT22;534;48.704;9.122;2023-09-18T16:56:42;21.30;76.00
1091;DHT22;534;48.704;9.122;2023-09-18T16:59:09;21.30;76.20
1091;DHT22;534;48.704;9.122;2023-09-18T17:01:37;21.20;76.80
1091;DHT22;534;48.704;9.122;2023-09-18T17:04:04;21.20;76.40
1091;DHT22;534;48.704;9.122;2023-09-18T17:06:31;21.20;76.70
1091;DHT22;534;48.704;9.122;2023-09-18T17:09:00;21.20;76.40
1091;DHT22;534;48.704;9.122;2023-09-18T17:11:29;21.20;76.80
1091;DHT22;534;48.704;9.122;2023-09-18T17:13:56;21.20;76.40
1091;DHT22;534;48.704;9.122;2023-09-18T17:16:23;21.20;76.80
1091;DHT22;534;48.704;9.122;2023-09-18T17:18:51;21.30;76.60
1091;DHT22;534;48.704;9.122;2023-09-18T17:21:21;21.40;76.50
1091;DHT22;534;48.704;9.122;2023-09-18T17:23:49;21.20;76.50
1091;DHT22;534;48.704;9.122;2023-09-18T17:26:15;21.20;76.80
1091;DHT22;534;48.704;9.122;2023-09-18T17:28:42;21.10;76.90
1091;DHT22;534;48.704;9.122;2023-09-18T17:31:09;21.20;76.80
1091;DHT22;534;48.704;9.122;2023-09-18T17:33:36;21.20;76.80
1091;DHT22;534;48.704;9.122;2023-09-18T17:36:05;21.10;77.10
1091;DHT22;534;48.704;9.122;2023-09-18T17:38:58;21.20;77.00
1091;DHT22;534;48.704;9.122;2023-09-18T17:41:26;21.40;76.50
1091;DHT22;534;48.704;9.122;2023-09-18T17:43:53;21.60;76.10
1091;DHT22;534;48.704;9.122;2023-09-18T17:46:20;21.60;75.80
1091;DHT22;534;48.704;9.122;2023-09-18T17:48:47;21.60;75.50
1091;DHT22;534;48.704;9.122;2023-09-18T17:51:15;21.60;75.90
1091;DHT22;534;48.704;9.122;2023-09-18T17:53:42;21.50;75.80
1091;DHT22;534;48.704;9.122;2023-09-18T17:56:09;21.60;75.90
1091;DHT22;534;48.704;9.122;2023-09-18T17:58:37;21.60;76.00
1091;DHT22;534;48.704;9.122;2023-09-18T18:01:03;21.40;76.10
1091;DHT22;534;48.704;9.122;2023-09-18T18:03:33;21.50;76.20
1091;DHT22;534;48.704;9.122;2023-09-18T18:05:59;21.50;76.10
1091;DHT22;534;48.704;9.122;2023-09-18T18:08:27;21.50;75.90
1091;DHT22;534;48.704;9.122;2023-09-18T18:10:54;21.60;75.90
1091;DHT22;534;48.704;9.122;2023-09-18T18:13:21;21.50;76.00
1091;DHT22;534;48.704;9.122;2023-09-18T18:15:49;21.50;76.10
1091;DHT22;534;48.704;9.122;2023-09-18T18:18:16;21.50;76.10
1091;DHT22;534;48.704;9.122;2023-09-18T18:20:43;21.40;76.50
1091;DHT22;534;48.704;9.122;2023-09-18T18:23:11;21.30;76.30
1091;DHT22;534;48.704;9.122;2023-09-18T18:25:39;21.20;76.90
1091;DHT22;534;48.704;9.122;2023-09-18T18:28:06;21.30;76.80
1091;DHT22;534;48.704;9.122;2023-09-18T18:30:34;21.10;77.00
1091;DHT22;534;48.704;9.122;2023-09-18T18:33:01;21.10;77.20
1091;DHT22;534;48.704;9.122;2023-09-18T18:35:28;21.10;77.10
1091;DHT22;534;48.704;9.122;2023-09-18T18:37:55;21.20;77.10
1091;DHT22;534;48.704;9.122;2023-09-18T18:40:21;21.10;77.00
1091;DHT22;534;48.704;9.122;2023-09-18T18:42:50;21.20;76.90
1091;DHT22;534;48.704;9.122;2023-09-18T18:45:17;21.30;76.70
1091;DHT22;534;48.704;9.122;2023-09-18T18:47:45;21.10;77.10
1091;DHT22;534;48.704;9.122;2023-09-18T18:50:13;21.20;77.10
1091;DHT22;534;48.704;9.122;2023-09-18T18:52:39;21.20;76.90
1091;DHT22;534;48.704;9.122;2023-09-18T18:55:07;21.20;77.00
1091;DHT22;534;48.704;9.122;2023-09-18T18:57:34;21.20;77.00
1091;DHT22;534;48.704;9.122;2023-09-18T19:00:02;21.30;76.90
1091;DHT22;534;48.704;9.122;2023-09-18T19:02:36;21.20;77.20
1091;DHT22;534;48.704;9.122;2023-09-18T19:05:03;21.10;77.00
1091;DHT22;534;48.704;9.122;2023-09-18T19:07:30;20.90;77.60
1091;DHT22;534;48.704;9.122;2023-09-18T19:09:57;20.70;79.10
1091;DHT22;534;48.704;9.122;2023-09-18T19:12:23;20.50;81.60
1091;DHT22;534;48.704;9.122;2023-09-18T19:14:51;20.10;83.60
1091;DHT22;534;48.704;9.122;2023-09-18T19:17:19;20.10;83.50
1091;DHT22;534;48.704;9.122;2023-09-18T19:19:46;19.80;83.40
1091;DHT22;534;48.704;9.122;2023-09-18T19:22:13;19.80;84.00
1091;DHT22;534;48.704;9.122;2023-09-18T19:24:39;19.70;83.80
1091;DHT22;534;48.704;9.122;2023-09-18T19:27:06;19.70;84.30
1091;DHT22;534;48.704;9.122;2023-09-18T19:29:33;19.60;84.80
1091;DHT22;534;48.704;9.122;2023-09-18T19:32:00;19.50;85.30
1091;DHT22;534;48.704;9.122;2023-09-18T19:34:29;19.50;85.20
1091;DHT22;534;48.704;9.122;2023-09-18T19:36:56;19.50;85.00
1091;DHT22;534;48.704;9.122;2023-09-18T19:39:22;19.40;84.90
1091;DHT22;534;48.704;9.122;2023-09-18T19:41:49;19.40;85.60
1091;DHT22;534;48.704;9.122;2023-09-18T19:44:16;19.40;85.20
1091;DHT22;534;48.704;9.122;2023-09-18T19:46:43;19.30;85.00
1091;DHT22;534;48.704;9.122;2023-09-18T19:49:09;19.30;85.80
1091;DHT22;534;48.704;9.122;2023-09-18T19:51:38;19.30;86.10
1091;DHT22;534;48.704;9.122;2023-09-18T19:54:05;19.20;86.20
1091;DHT22;534;48.704;9.122;2023-09-18T19:56:32;19.20;86.20
1091;DHT22;534;48.704;9.122;2023-09-18T19:58:59;19.00;85.90
1091;DHT22;534;48.704;9.122;2023-09-18T20:01:25;18.80;86.10
1091;DHT22;534;48.704;9.122;2023-09-18T20:03:55;18.80;86.10
1091;DHT22;534;48.704;9.122;2023-09-18T20:06:22;18.90;85.60
1091;DHT22;534;48.704;9.122;2023-09-18T20:08:50;19.00;85.20
1091;DHT22;534;48.704;9.122;2023-09-18T20:11:17;19.10;84.70
1091;DHT22;534;48.704;9.122;2023-09-18T20:13:44;19.00;83.60
1091;DHT22;534;48.704;9.122;2023-09-18T20:16:11;18.80;84.20
1091;DHT22;534;48.704;9.122;2023-09-18T20:18:38;18.80;84.40
1091;DHT22;534;48.704;9.122;2023-09-18T20:21:04;18.80;84.70
1091;DHT22;534;48.704;9.122;2023-09-18T20:23:34;19.00;84.70